Orbital elements of COSMOS 970 DEB
| Launched | 20 December 1977 |
| Flight ended | – |
| Launch site | Tyuratam Missile and Space Center, Kazakhstan (Also known as Baikonur Cosmodrome) |
| Owner | Commonwealth of Independent States (former USSR) |
| NORAD ID | 18998 |
| Date fetched |
Epoch osculation |
Inc. [°] |
Ecc. | RA asc node [hr] |
Arg Peri. [°] |
Mean anom [°] |
Mean motion [rev/day] |
Abs. mag |
| Date fetched |
Epoch osculation |
Inc. [°] |
Ecc. | RA asc node [hr] |
Arg Peri. [°] |
Mean anom [°] |
Mean motion [rev/day] |
Abs. mag |
| 2026 May 03 17:57 | 2026 Apr 30 03:29:16 | 65.8246 | 0.01208 | 11.0784 | 149.2966 | 246.9937 | 13.77566 | – |
| 2026 May 02 17:57 | 2026 Apr 30 03:29:16 | 65.8246 | 0.01208 | 11.0784 | 149.2966 | 246.9937 | 13.77566 | – |
| 2026 May 01 17:56 | 2026 Apr 30 03:29:16 | 65.8246 | 0.01208 | 11.0784 | 149.2966 | 246.9937 | 13.77566 | – |
| 2026 Apr 30 17:56 | 2026 Apr 30 03:29:16 | 65.8246 | 0.01208 | 11.0784 | 149.2966 | 246.9937 | 13.77566 | – |
| 2026 Apr 29 17:57 | 2026 Apr 24 13:29:06 | 65.8253 | 0.01214 | 12.0025 | 152.1005 | 246.9937 | 13.77566 | – |
| 2026 Apr 28 17:56 | 2026 Apr 24 13:29:06 | 65.8253 | 0.01214 | 12.0025 | 152.1005 | 246.9937 | 13.77566 | – |
| 2026 Apr 27 17:58 | 2026 Apr 24 13:29:06 | 65.8253 | 0.01214 | 12.0025 | 152.1005 | 246.9937 | 13.77566 | – |
| 2026 Apr 26 17:58 | 2026 Apr 24 13:29:06 | 65.8253 | 0.01214 | 12.0025 | 152.1005 | 246.9937 | 13.77566 | – |
| 2026 Apr 25 17:58 | 2026 Apr 24 13:29:06 | 65.8253 | 0.01214 | 12.0025 | 152.1005 | 246.9937 | 13.77566 | – |
| 2026 Apr 24 17:59 | 2026 Apr 24 13:29:06 | 65.8253 | 0.01214 | 12.0025 | 152.1005 | 246.9937 | 13.77566 | – |
| 2026 Apr 23 17:57 | 2026 Apr 19 06:07:22 | 65.8257 | 0.01219 | 12.8808 | 154.7223 | 246.9937 | 13.77566 | – |
| 2026 Apr 22 17:57 | 2026 Apr 19 06:07:22 | 65.8257 | 0.01219 | 12.8808 | 154.7223 | 246.9937 | 13.77566 | – |
| 2026 Apr 21 17:57 | 2026 Apr 19 06:07:22 | 65.8257 | 0.01219 | 12.8808 | 154.7223 | 246.9937 | 13.77566 | – |
| 2026 Apr 20 17:57 | 2026 Apr 19 06:07:22 | 65.8257 | 0.01219 | 12.8808 | 154.7223 | 246.9937 | 13.77566 | – |
| 2026 Apr 19 17:58 | 2026 Apr 19 06:07:22 | 65.8257 | 0.01219 | 12.8808 | 154.7223 | 246.9937 | 13.77566 | – |
| 2026 Apr 18 17:56 | 2026 Apr 12 17:53:08 | 65.8257 | 0.01225 | 13.9581 | 157.9300 | 246.9937 | 13.77566 | – |
| 2026 Apr 16 17:57 | 2026 Apr 12 17:53:08 | 65.8257 | 0.01225 | 13.9581 | 157.9300 | 246.9937 | 13.77566 | – |
| 2026 Apr 14 17:57 | 2026 Apr 12 17:53:08 | 65.8257 | 0.01225 | 13.9581 | 157.9300 | 246.9937 | 13.77566 | – |
| 2026 Apr 13 17:57 | 2026 Apr 12 17:53:08 | 65.8257 | 0.01225 | 13.9581 | 157.9300 | 246.9937 | 13.77566 | – |
| 2026 Apr 12 17:57 | 2026 Apr 08 08:45:51 | 65.8254 | 0.01228 | 14.6830 | 160.0729 | 246.9937 | 13.77566 | – |
| 2026 Apr 11 17:57 | 2026 Apr 08 08:45:51 | 65.8254 | 0.01228 | 14.6830 | 160.0729 | 246.9937 | 13.77566 | – |
| 2026 Apr 10 17:58 | 2026 Apr 08 08:45:51 | 65.8254 | 0.01228 | 14.6830 | 160.0729 | 246.9937 | 13.77566 | – |
| 2026 Apr 09 18:01 | 2026 Apr 08 08:45:51 | 65.8254 | 0.01228 | 14.6830 | 160.0729 | 246.9937 | 13.77566 | – |
| 2026 Apr 08 17:57 | 2026 Apr 08 08:45:51 | 65.8254 | 0.01228 | 14.6830 | 160.0729 | 246.9937 | 13.77566 | – |
| 2026 Apr 07 17:57 | 2026 Apr 01 20:30:41 | 65.8246 | 0.01234 | 15.7606 | 163.2715 | 246.9937 | 13.77566 | – |
| 2026 Apr 06 17:57 | 2026 Apr 01 20:30:41 | 65.8246 | 0.01234 | 15.7606 | 163.2715 | 246.9937 | 13.77566 | – |